createdAt,value
2023-04-02T00:00:28.130Z,2.78
2023-04-02T00:01:40.990Z,2.80
2023-04-02T00:02:49.100Z,2.38
2023-04-02T00:04:09.234Z,2.92
2023-04-02T00:05:34.553Z,3.03
2023-04-02T00:06:44.770Z,2.38
2023-04-02T00:07:51.777Z,2.92
2023-04-02T00:08:56.387Z,2.65
2023-04-02T00:10:00.049Z,2.38
2023-04-02T00:11:03.221Z,2.70
2023-04-02T00:12:19.190Z,3.15
2023-04-02T00:13:31.188Z,2.88
2023-04-02T00:14:36.342Z,2.78
2023-04-02T00:15:40.150Z,3.05
2023-04-02T00:16:45.710Z,3.07
2023-04-02T00:17:48.362Z,2.53
2023-04-02T00:18:54.895Z,2.85
2023-04-02T00:20:01.047Z,2.75
2023-04-02T00:21:13.920Z,3.08
2023-04-02T00:22:20.852Z,2.75
2023-04-02T00:23:24.712Z,2.42
2023-04-02T00:24:27.378Z,3.15
2023-04-02T00:25:35.878Z,2.67
2023-04-02T00:26:41.209Z,2.50
2023-04-02T00:27:45.214Z,2.47
2023-04-02T00:28:48.131Z,2.33
2023-04-02T00:29:55.056Z,2.45
2023-04-02T00:31:02.480Z,2.55
2023-04-02T00:32:07.592Z,2.65
2023-04-02T00:33:15.994Z,2.65
2023-04-02T00:34:23.374Z,2.50
2023-04-02T00:35:28.730Z,2.42
2023-04-02T00:36:35.298Z,2.63
2023-04-02T00:37:39.302Z,2.50
2023-04-02T00:38:46.812Z,2.47
2023-04-02T00:39:53.741Z,2.35
2023-04-02T00:41:00.568Z,2.80
2023-04-02T00:42:05.296Z,2.88
2023-04-02T00:43:16.777Z,2.50
2023-04-02T00:44:22.215Z,2.65
2023-04-02T00:45:33.908Z,2.88
2023-04-02T00:46:47.411Z,2.85
2023-04-02T00:47:53.978Z,2.60
2023-04-02T00:49:01.492Z,2.72
2023-04-02T00:50:19.551Z,2.53
2023-04-02T00:51:26.581Z,2.50
2023-04-02T00:52:33.338Z,2.50
2023-04-02T00:53:36.769Z,2.63
2023-04-02T00:54:44.793Z,2.83
2023-04-02T00:55:48.068Z,2.30
2023-04-02T00:56:55.111Z,2.20
2023-04-02T00:58:01.669Z,2.45
2023-04-02T00:59:05.806Z,2.60
2023-04-02T01:00:21.884Z,2.63
2023-04-02T01:01:27.989Z,2.50
2023-04-02T01:02:38.598Z,2.53
2023-04-02T01:03:45.348Z,2.55
2023-04-02T01:04:53.724Z,2.63
2023-04-02T01:06:03.117Z,2.47
2023-04-02T01:07:09.799Z,2.40
2023-04-02T01:08:23.783Z,2.80
2023-04-02T01:09:43.965Z,2.35
2023-04-02T01:11:03.674Z,2.60
2023-04-02T01:12:25.248Z,2.70
2023-04-02T01:13:35.155Z,2.77
2023-04-02T01:14:46.197Z,2.58
2023-04-02T01:15:58.358Z,2.78
2023-04-02T01:17:10.905Z,3.40
2023-04-02T01:18:26.851Z,2.97
2023-04-02T01:20:07.932Z,2.80
2023-04-02T01:21:26.161Z,2.97
2023-04-02T01:22:35.999Z,2.42
2023-04-02T01:23:54.251Z,2.50
2023-04-02T01:24:58.283Z,2.47
2023-04-02T01:26:13.912Z,3.10
2023-04-02T01:27:22.827Z,2.97
2023-04-02T01:28:32.175Z,2.92
2023-04-02T01:29:41.333Z,3.08
2023-04-02T01:30:46.140Z,3.00
2023-04-02T01:31:52.111Z,2.65
2023-04-02T01:32:55.025Z,2.63
2023-04-02T01:33:58.678Z,2.78
2023-04-02T01:35:01.529Z,3.13
2023-04-02T01:36:12.719Z,3.08
2023-04-02T01:37:27.509Z,2.30
2023-04-02T01:38:38.332Z,2.50
2023-04-02T01:40:13.102Z,2.70
2023-04-02T01:41:24.517Z,3.10
2023-04-02T01:42:33.475Z,2.20
2023-04-02T01:43:46.738Z,2.55
2023-04-02T01:44:53.315Z,2.50
2023-04-02T01:45:57.918Z,2.65
2023-04-02T01:47:06.478Z,2.78
2023-04-02T01:48:16.391Z,2.42
2023-04-02T01:49:23.210Z,1.93
2023-04-02T01:50:31.955Z,2.33
2023-04-02T01:51:41.176Z,2.20
2023-04-02T01:52:45.851Z,1.98
2023-04-02T01:53:49.778Z,2.08
2023-04-02T01:54:52.922Z,2.00
2023-04-02T01:55:59.727Z,1.92
2023-04-02T01:57:02.362Z,1.80
2023-04-02T01:58:06.261Z,1.95
2023-04-02T01:59:11.727Z,1.73
2023-04-02T02:00:19.260Z,1.83
2023-04-02T02:01:26.390Z,1.80
2023-04-02T02:02:31.653Z,1.65
2023-04-02T02:03:36.802Z,1.40
2023-04-02T02:04:41.968Z,1.75
2023-04-02T02:05:44.901Z,1.75
2023-04-02T02:06:49.281Z,1.70
2023-04-02T02:07:52.754Z,1.80
2023-04-02T02:08:59.882Z,2.08
2023-04-02T02:10:04.138Z,2.05
2023-04-02T02:11:08.317Z,1.60
2023-04-02T02:12:15.137Z,1.58
2023-04-02T02:13:17.658Z,1.30
2023-04-02T02:14:23.443Z,1.85
2023-04-02T02:15:29.016Z,1.35
2023-04-02T02:16:34.101Z,1.80
2023-04-02T02:17:37.196Z,1.40
2023-04-02T02:18:41.076Z,1.42
2023-04-02T02:19:47.886Z,1.35
2023-04-02T02:20:52.567Z,1.27
2023-04-02T02:21:58.509Z,1.57
2023-04-02T02:23:02.332Z,1.35
2023-04-02T02:24:09.113Z,1.40
2023-04-02T02:25:16.971Z,1.10
2023-04-02T02:26:22.106Z,2.45
2023-04-02T02:27:53.768Z,1.40
2023-04-02T02:28:57.850Z,1.42
2023-04-02T02:30:07.845Z,1.33
2023-04-02T02:31:18.073Z,1.23
2023-04-02T02:32:24.286Z,1.40
2023-04-02T02:33:29.568Z,1.30
2023-04-02T02:34:38.760Z,1.30
2023-04-02T02:35:45.211Z,1.70
2023-04-02T02:36:53.129Z,1.20
2023-04-02T02:38:02.934Z,1.55
2023-04-02T02:39:14.168Z,1.40
2023-04-02T02:40:21.936Z,1.38
2023-04-02T02:41:32.152Z,1.05
2023-04-02T02:42:39.303Z,1.25
2023-04-02T02:43:48.502Z,1.30
2023-04-02T02:44:55.615Z,2.20
2023-04-02T02:45:59.559Z,1.42
2023-04-02T02:47:10.795Z,1.38
2023-04-02T02:48:16.574Z,1.67
2023-04-02T02:49:24.935Z,1.30
2023-04-02T02:50:31.822Z,1.70
2023-04-02T02:51:43.743Z,1.23
2023-04-02T02:52:51.000Z,1.42
2023-04-02T02:53:58.332Z,1.73
2023-04-02T02:55:03.555Z,1.40
2023-04-02T02:56:07.514Z,1.67
2023-04-02T02:57:14.910Z,1.63
2023-04-02T02:58:20.239Z,2.53
2023-04-02T02:59:24.837Z,1.90
2023-04-02T03:00:28.533Z,1.52
2023-04-02T03:01:33.686Z,1.65
2023-04-02T03:02:40.373Z,1.73
2023-04-02T03:03:44.895Z,1.92
2023-04-02T03:04:50.885Z,1.83
2023-04-02T03:05:56.930Z,2.03
2023-04-02T03:07:00.504Z,1.47
2023-04-02T03:08:06.796Z,1.65
2023-04-02T03:09:18.774Z,1.70
2023-04-02T03:10:27.582Z,1.90
2023-04-02T03:11:38.626Z,2.20
2023-04-02T03:12:46.135Z,1.92
2023-04-02T03:13:54.731Z,1.77
2023-04-02T03:15:03.715Z,1.85
2023-04-02T03:16:13.191Z,1.70
2023-04-02T03:17:23.675Z,2.30
2023-04-02T03:18:38.026Z,1.80
2023-04-02T03:19:46.747Z,1.88
2023-04-02T03:20:54.453Z,1.70
2023-04-02T03:22:06.152Z,1.67
2023-04-02T03:23:20.404Z,1.90
2023-04-02T03:24:32.597Z,1.92
2023-04-02T03:25:43.217Z,2.00
2023-04-02T03:26:54.417Z,1.50
2023-04-02T03:28:03.150Z,1.83
2023-04-02T03:29:12.657Z,1.88
2023-04-02T03:30:29.261Z,2.33
2023-04-02T03:31:35.849Z,2.03
2023-04-02T03:32:41.984Z,2.15
2023-04-02T03:33:50.262Z,1.83
2023-04-02T03:34:58.634Z,1.95
2023-04-02T03:36:05.509Z,1.83
2023-04-02T03:37:15.894Z,2.42
2023-04-02T03:38:23.684Z,1.77
2023-04-02T03:39:34.228Z,2.10
2023-04-02T03:40:42.697Z,1.95
2023-04-02T03:41:49.638Z,2.10
2023-04-02T03:42:58.698Z,2.03
2023-04-02T03:44:08.768Z,2.00
2023-04-02T03:45:19.287Z,1.90
2023-04-02T03:46:27.729Z,2.00
2023-04-02T03:47:35.686Z,2.08
2023-04-02T03:48:42.514Z,2.40
2023-04-02T03:49:52.901Z,2.88
2023-04-02T03:51:01.911Z,2.42
2023-04-02T03:52:09.816Z,2.40
2023-04-02T03:53:13.696Z,2.03
2023-04-02T03:54:17.459Z,2.28
2023-04-02T03:55:24.066Z,2.13
2023-04-02T03:56:29.822Z,2.25
2023-04-02T03:57:37.781Z,2.03
2023-04-02T03:58:47.044Z,2.22
2023-04-02T03:59:58.888Z,3.03
2023-04-02T04:01:08.805Z,2.42
2023-04-02T04:02:36.362Z,2.10
2023-04-02T04:03:42.116Z,2.60
2023-04-02T04:04:48.830Z,2.23
2023-04-02T04:05:54.224Z,1.98
2023-04-02T04:06:59.836Z,2.28
2023-04-02T04:08:05.640Z,2.60
2023-04-02T04:09:12.267Z,2.38
2023-04-02T04:10:21.075Z,2.78
2023-04-02T04:11:28.678Z,2.10
2023-04-02T04:12:34.565Z,2.38
2023-04-02T04:13:44.942Z,2.90
2023-04-02T04:14:53.875Z,2.20
2023-04-02T04:16:02.948Z,2.53
2023-04-02T04:17:15.970Z,2.25
2023-04-02T04:18:34.891Z,2.70
2023-04-02T04:19:45.511Z,2.55
2023-04-02T04:20:56.942Z,2.63
2023-04-02T04:22:11.127Z,2.75
2023-04-02T04:23:25.990Z,2.40
2023-04-02T04:24:28.559Z,2.67
2023-04-02T04:25:34.590Z,2.65
2023-04-02T04:26:44.288Z,2.65
2023-04-02T04:28:05.692Z,2.30
2023-04-02T04:29:24.679Z,2.00
2023-04-02T04:30:35.221Z,2.00
2023-04-02T04:31:42.001Z,2.00
2023-04-02T04:32:51.205Z,2.20
2023-04-02T04:33:56.110Z,1.92
2023-04-02T04:35:06.290Z,2.67
2023-04-02T04:36:21.819Z,2.03
2023-04-02T04:37:29.305Z,1.80
2023-04-02T04:38:34.350Z,1.90
2023-04-02T04:39:44.443Z,1.80
2023-04-02T04:40:54.193Z,2.20
2023-04-02T04:42:01.277Z,1.80
2023-04-02T04:43:07.132Z,2.00
2023-04-02T04:44:19.849Z,1.90
2023-04-02T04:45:43.955Z,1.60
2023-04-02T04:46:54.854Z,1.67
2023-04-02T04:48:03.013Z,1.35
2023-04-02T04:49:11.583Z,1.40
2023-04-02T04:50:21.875Z,1.55
2023-04-02T04:51:30.148Z,1.60
2023-04-02T04:52:38.167Z,1.88
2023-04-02T04:53:47.904Z,1.77
2023-04-02T04:54:52.041Z,1.70
2023-04-02T04:55:57.078Z,1.80
2023-04-02T04:57:07.329Z,1.70
2023-04-02T04:58:19.545Z,1.65
2023-04-02T04:59:27.156Z,1.35
2023-04-02T05:00:44.589Z,1.60
2023-04-02T05:01:51.662Z,1.42
2023-04-02T05:03:03.673Z,1.80
2023-04-02T05:04:16.457Z,1.77
2023-04-02T05:05:24.244Z,1.60
2023-04-02T05:06:38.583Z,2.15
2023-04-02T05:07:47.605Z,1.75
2023-04-02T05:08:54.268Z,1.52
2023-04-02T05:10:01.864Z,1.65
2023-04-02T05:11:09.223Z,1.50
2023-04-02T05:12:21.845Z,1.70
2023-04-02T05:13:32.891Z,1.60
2023-04-02T05:14:40.972Z,1.77
2023-04-02T05:15:52.575Z,1.55
2023-04-02T05:17:03.271Z,2.13
2023-04-02T05:18:19.382Z,1.73
2023-04-02T05:19:28.633Z,1.83
2023-04-02T05:20:38.155Z,1.65
2023-04-02T05:21:47.329Z,1.75
2023-04-02T05:22:56.153Z,1.55
2023-04-02T05:24:07.088Z,2.20
2023-04-02T05:25:21.692Z,1.92
2023-04-02T05:26:29.020Z,2.10
2023-04-02T05:27:41.164Z,1.70
2023-04-02T05:28:52.335Z,1.80
2023-04-02T05:29:59.703Z,1.90
2023-04-02T05:31:07.267Z,2.13
2023-04-02T05:32:16.294Z,1.55
2023-04-02T05:33:28.371Z,1.80
2023-04-02T05:34:36.500Z,1.80
2023-04-02T05:35:46.446Z,1.80
2023-04-02T05:36:50.855Z,1.67
2023-04-02T05:37:54.714Z,1.70
2023-04-02T05:38:59.489Z,1.90
2023-04-02T05:40:14.820Z,1.40
2023-04-02T05:41:27.077Z,1.63
2023-04-02T05:42:33.790Z,1.85
2023-04-02T05:43:45.231Z,1.58
2023-04-02T05:45:00.859Z,1.58
2023-04-02T05:46:15.813Z,1.60
2023-04-02T05:47:24.447Z,1.80
2023-04-02T05:48:32.766Z,1.75
2023-04-02T05:49:45.795Z,1.50
2023-04-02T05:50:51.723Z,1.35
2023-04-02T05:52:01.356Z,1.20
2023-04-02T05:53:10.585Z,1.30
2023-04-02T05:54:23.523Z,1.65
2023-04-02T05:55:34.718Z,1.38
2023-04-02T05:56:44.118Z,1.45
2023-04-02T05:58:04.386Z,1.38
2023-04-02T05:59:20.459Z,1.50
2023-04-02T06:00:29.216Z,1.20
2023-04-02T06:01:40.576Z,1.27
2023-04-02T06:02:53.833Z,1.27
2023-04-02T06:04:04.136Z,1.70
2023-04-02T06:05:15.369Z,1.30
2023-04-02T06:06:27.853Z,1.45
2023-04-02T06:07:37.374Z,1.40
2023-04-02T06:08:45.910Z,1.20
2023-04-02T06:09:54.573Z,2.08
2023-04-02T06:11:02.299Z,1.40
2023-04-02T06:12:20.740Z,1.40
2023-04-02T06:13:23.417Z,1.00
2023-04-02T06:14:26.847Z,1.60
2023-04-02T06:15:31.050Z,1.17
2023-04-02T06:16:36.885Z,1.55
2023-04-02T06:17:47.068Z,1.70
2023-04-02T06:18:50.581Z,1.05
2023-04-02T06:19:54.765Z,1.17
2023-04-02T06:21:00.948Z,1.35
2023-04-02T06:22:16.815Z,1.10
2023-04-02T06:23:24.830Z,1.27
2023-04-02T06:24:31.801Z,1.33
2023-04-02T06:25:38.492Z,1.20
2023-04-02T06:26:45.848Z,1.85
2023-04-02T06:27:50.993Z,1.20
2023-04-02T06:28:59.357Z,1.58
2023-04-02T06:30:07.328Z,1.30
2023-04-02T06:31:18.416Z,1.38
2023-04-02T06:32:25.785Z,1.50
2023-04-02T06:33:28.299Z,1.50
2023-04-02T06:34:33.386Z,1.95
2023-04-02T06:35:39.563Z,2.30
2023-04-02T06:36:43.398Z,1.50
2023-04-02T06:37:48.349Z,1.50
2023-04-02T06:38:55.917Z,2.20
2023-04-02T06:39:59.690Z,1.52
2023-04-02T06:41:07.203Z,1.50
2023-04-02T06:42:15.208Z,1.70
2023-04-02T06:43:26.460Z,1.08
2023-04-02T06:44:34.007Z,1.25
2023-04-02T06:45:41.560Z,1.27
2023-04-02T06:46:50.013Z,1.27
2023-04-02T06:47:57.641Z,1.73
2023-04-02T06:49:10.708Z,1.60
2023-04-02T06:50:16.858Z,1.30
2023-04-02T06:51:22.926Z,1.42
2023-04-02T06:52:30.085Z,1.42
2023-04-02T06:53:36.610Z,1.20
2023-04-02T06:54:41.484Z,1.25
2023-04-02T06:55:48.252Z,1.83
2023-04-02T06:56:53.488Z,1.52
2023-04-02T06:57:56.112Z,1.43
2023-04-02T06:58:59.979Z,1.40
2023-04-02T07:00:02.622Z,1.83
2023-04-02T07:01:06.785Z,1.48
2023-04-02T07:02:25.447Z,1.60
2023-04-02T07:03:30.665Z,1.38
2023-04-02T07:04:34.271Z,1.30
2023-04-02T07:05:38.470Z,1.42
2023-04-02T07:06:42.462Z,1.30
2023-04-02T07:07:46.118Z,1.40
2023-04-02T07:08:49.191Z,1.47
2023-04-02T07:09:54.224Z,1.30
2023-04-02T07:10:56.900Z,1.30
2023-04-02T07:12:00.254Z,1.50
2023-04-02T07:13:03.336Z,1.52
2023-04-02T07:14:07.376Z,1.63
2023-04-02T07:15:15.032Z,1.48
2023-04-02T07:16:21.366Z,1.90
2023-04-02T07:17:24.476Z,1.90
2023-04-02T07:18:30.499Z,1.65
2023-04-02T07:19:33.178Z,1.80
2023-04-02T07:20:37.959Z,2.10
2023-04-02T07:21:40.938Z,1.73
2023-04-02T07:22:44.627Z,1.50
2023-04-02T07:23:47.048Z,2.05
2023-04-02T07:24:50.792Z,1.65
2023-04-02T07:25:56.393Z,2.20
2023-04-02T07:27:00.375Z,2.03
2023-04-02T07:28:02.937Z,1.55
2023-04-02T07:29:08.314Z,1.60
2023-04-02T07:30:12.573Z,1.90
2023-04-02T07:31:18.018Z,1.60
2023-04-02T07:32:21.862Z,1.88
2023-04-02T07:33:27.400Z,1.73
2023-04-02T07:34:31.806Z,1.85
2023-04-02T07:35:35.134Z,1.70
2023-04-02T07:36:39.452Z,1.63
2023-04-02T07:37:42.634Z,1.65
2023-04-02T07:38:46.970Z,1.50
2023-04-02T07:39:51.197Z,1.83
2023-04-02T07:40:56.464Z,1.63
2023-04-02T07:42:00.179Z,1.80
2023-04-02T07:43:04.285Z,1.80
2023-04-02T07:44:07.111Z,1.65
2023-04-02T07:45:11.822Z,1.70
2023-04-02T07:46:18.196Z,1.50
2023-04-02T07:47:20.928Z,1.58
2023-04-02T07:48:25.272Z,1.40
2023-04-02T07:49:28.699Z,1.60
2023-04-02T07:50:32.649Z,1.50
2023-04-02T07:51:35.198Z,1.50
2023-04-02T07:52:42.287Z,1.27
2023-04-02T07:53:45.084Z,1.58
2023-04-02T07:54:49.179Z,1.92
2023-04-02T07:55:52.819Z,1.80
2023-04-02T07:56:57.892Z,1.50
2023-04-02T07:58:00.532Z,1.98
2023-04-02T07:59:04.585Z,1.70
2023-04-02T08:00:09.307Z,2.00
2023-04-02T08:01:19.519Z,1.55
2023-04-02T08:02:23.896Z,1.47
2023-04-02T08:03:27.009Z,1.95
2023-04-02T08:04:30.648Z,1.52
2023-04-02T08:05:33.611Z,1.40
2023-04-02T08:06:37.345Z,1.70
2023-04-02T08:07:39.918Z,1.73
2023-04-02T08:08:43.723Z,1.60
2023-04-02T08:09:46.281Z,1.70
2023-04-02T08:10:50.181Z,1.63
2023-04-02T08:11:54.104Z,1.92
2023-04-02T08:12:58.003Z,1.70
2023-04-02T08:14:01.553Z,1.42
2023-04-02T08:15:06.078Z,1.60
2023-04-02T08:16:10.778Z,1.80
2023-04-02T08:17:14.299Z,1.60
2023-04-02T08:18:16.844Z,2.10
2023-04-02T08:19:21.569Z,2.30
2023-04-02T08:20:24.775Z,1.83
2023-04-02T08:21:28.238Z,1.50
2023-04-02T08:22:31.161Z,1.40
2023-04-02T08:23:35.279Z,1.73
2023-04-02T08:24:37.724Z,1.60
2023-04-02T08:25:41.329Z,1.20
2023-04-02T08:26:45.543Z,1.73
2023-04-02T08:27:49.781Z,1.55
2023-04-02T08:28:54.206Z,1.42
2023-04-02T08:29:57.703Z,1.60
2023-04-02T08:31:00.394Z,1.77
2023-04-02T08:32:04.095Z,1.38
2023-04-02T08:33:06.779Z,1.63
2023-04-02T08:34:10.169Z,1.83
2023-04-02T08:35:16.482Z,1.13
2023-04-02T08:36:20.648Z,1.80
2023-04-02T08:37:23.183Z,1.42
2023-04-02T08:38:26.918Z,1.65
2023-04-02T08:39:33.482Z,1.25
2023-04-02T08:40:40.552Z,2.13
2023-04-02T08:41:52.027Z,1.38
2023-04-02T08:43:14.618Z,1.50
2023-04-02T08:44:33.688Z,1.58
2023-04-02T08:45:47.873Z,1.77
2023-04-02T08:46:56.504Z,1.52
2023-04-02T08:48:00.313Z,1.67
2023-04-02T08:49:11.747Z,1.70
2023-04-02T08:50:25.033Z,2.05
2023-04-02T08:51:31.884Z,1.50
2023-04-02T08:52:38.426Z,1.70
2023-04-02T08:53:42.592Z,1.73
2023-04-02T08:54:45.158Z,1.45
2023-04-02T08:56:00.034Z,1.63
2023-04-02T08:57:07.844Z,1.50
2023-04-02T08:58:26.336Z,1.50
2023-04-02T08:59:36.170Z,2.15
2023-04-02T09:00:41.939Z,2.42
2023-04-02T09:01:52.025Z,2.33
2023-04-02T09:02:58.839Z,1.90
2023-04-02T09:04:03.495Z,1.70
2023-04-02T09:05:09.830Z,2.00
2023-04-02T09:06:16.807Z,2.08
2023-04-02T09:07:20.544Z,2.13
2023-04-02T09:08:25.287Z,2.10
2023-04-02T09:09:29.060Z,2.28
2023-04-02T09:10:39.277Z,2.20
2023-04-02T09:11:51.922Z,2.10
2023-04-02T09:12:55.353Z,2.10
2023-04-02T09:14:00.370Z,2.13
2023-04-02T09:15:20.805Z,2.42
2023-04-02T09:16:36.184Z,2.00
2023-04-02T09:17:53.067Z,2.30
2023-04-02T09:18:57.702Z,2.25
2023-04-02T09:20:05.636Z,2.73
2023-04-02T09:21:28.381Z,2.20
2023-04-02T09:22:32.680Z,2.38
2023-04-02T09:23:36.418Z,2.60
2023-04-02T09:24:38.721Z,2.17
2023-04-02T09:25:54.100Z,2.30
2023-04-02T09:27:05.724Z,2.55
2023-04-02T09:28:12.071Z,2.55
2023-04-02T09:29:41.622Z,2.47
2023-04-02T09:31:00.893Z,2.50
2023-04-02T09:32:14.276Z,2.93
2023-04-02T09:33:17.919Z,2.50
2023-04-02T09:34:30.904Z,2.22
2023-04-02T09:35:35.802Z,2.50
2023-04-02T09:36:40.656Z,2.70
2023-04-02T09:37:43.985Z,2.70
2023-04-02T09:39:01.648Z,2.40
2023-04-02T09:40:25.536Z,3.05
2023-04-02T09:41:30.178Z,2.45
2023-04-02T09:42:36.450Z,2.55
2023-04-02T09:43:39.531Z,2.90
2023-04-02T09:44:42.927Z,2.47
2023-04-02T09:45:56.147Z,2.60
2023-04-02T09:47:03.967Z,2.53
2023-04-02T09:48:22.709Z,2.38
2023-04-02T09:49:28.557Z,2.58
2023-04-02T09:50:34.375Z,2.50
2023-04-02T09:51:38.502Z,2.38
2023-04-02T09:52:40.993Z,2.80
2023-04-02T09:53:47.291Z,2.42
2023-04-02T09:55:18.512Z,2.70
2023-04-02T09:56:23.402Z,2.60
2023-04-02T09:57:28.202Z,2.60
2023-04-02T09:58:31.789Z,2.80
2023-04-02T09:59:34.152Z,2.67
2023-04-02T10:00:38.287Z,2.70
2023-04-02T10:01:48.070Z,2.22
2023-04-02T10:03:03.181Z,2.20
2023-04-02T10:04:08.694Z,2.33
2023-04-02T10:05:30.088Z,2.10
2023-04-02T10:06:53.900Z,2.50
2023-04-02T10:08:07.942Z,2.30
2023-04-02T10:09:22.955Z,2.50
2023-04-02T10:10:29.712Z,2.20
2023-04-02T10:11:45.810Z,2.00
2023-04-02T10:12:57.216Z,1.88
2023-04-02T10:14:04.874Z,2.40
2023-04-02T10:15:17.120Z,1.90
2023-04-02T10:16:27.650Z,1.80
2023-04-02T10:17:37.541Z,1.58
2023-04-02T10:18:48.508Z,1.93
2023-04-02T10:19:56.281Z,1.83
2023-04-02T10:21:01.815Z,1.90
2023-04-02T10:22:10.801Z,1.88
2023-04-02T10:23:18.076Z,2.20
2023-04-02T10:24:21.910Z,2.03
2023-04-02T10:25:31.429Z,2.20
2023-04-02T10:26:49.160Z,1.90
2023-04-02T10:27:57.838Z,2.03
2023-04-02T10:29:16.500Z,1.83
2023-04-02T10:30:25.487Z,2.00
2023-04-02T10:31:34.962Z,2.30
2023-04-02T10:32:46.109Z,2.08
2023-04-02T10:33:53.163Z,2.40
2023-04-02T10:35:00.111Z,2.10
2023-04-02T10:36:11.445Z,1.88
2023-04-02T10:37:50.382Z,2.03
2023-04-02T10:39:00.340Z,1.95
2023-04-02T10:40:12.126Z,2.00
2023-04-02T10:41:30.328Z,1.90
2023-04-02T10:42:39.209Z,1.80
2023-04-02T10:43:57.828Z,1.98
2023-04-02T10:45:15.118Z,1.80
2023-04-02T10:46:25.623Z,1.90
2023-04-02T10:47:39.320Z,1.90
2023-04-02T10:48:52.653Z,2.03
2023-04-02T10:50:10.217Z,1.80
2023-04-02T10:51:19.556Z,2.20
2023-04-02T10:52:29.018Z,1.90
2023-04-02T10:53:38.817Z,1.55
2023-04-02T10:54:47.790Z,2.23
2023-04-02T10:55:55.575Z,1.60
2023-04-02T10:57:07.843Z,2.13
2023-04-02T10:58:22.188Z,1.70
2023-04-02T10:59:29.236Z,1.90
2023-04-02T11:00:37.020Z,1.58
2023-04-02T11:01:45.135Z,1.63
2023-04-02T11:02:54.484Z,1.63
2023-04-02T11:04:05.793Z,1.67
2023-04-02T11:05:19.950Z,2.00
2023-04-02T11:06:28.608Z,1.70
2023-04-02T11:07:46.590Z,1.90
2023-04-02T11:08:52.944Z,1.83
2023-04-02T11:09:58.316Z,1.88
2023-04-02T11:11:08.132Z,1.40
2023-04-02T11:12:22.432Z,1.60
2023-04-02T11:13:30.088Z,1.50
2023-04-02T11:14:33.582Z,1.60
2023-04-02T11:15:38.658Z,1.60
2023-04-02T11:16:44.504Z,1.88
2023-04-02T11:17:49.541Z,2.10
2023-04-02T11:19:26.291Z,1.55
2023-04-02T11:21:06.157Z,1.40
2023-04-02T11:22:16.583Z,1.80
2023-04-02T11:23:21.558Z,1.60
2023-04-02T11:24:32.744Z,1.70
2023-04-02T11:25:36.509Z,1.88
2023-04-02T11:26:42.680Z,1.48
2023-04-02T11:27:46.321Z,1.42
2023-04-02T11:28:48.884Z,1.50
2023-04-02T11:29:57.076Z,1.60
2023-04-02T11:30:59.860Z,1.40
2023-04-02T11:32:32.307Z,1.50
2023-04-02T11:33:46.033Z,2.05
2023-04-02T11:35:07.495Z,1.88
2023-04-02T11:36:44.374Z,1.77
2023-04-02T11:37:49.703Z,1.70
2023-04-02T11:38:54.992Z,1.52
2023-04-02T11:40:01.858Z,1.70
2023-04-02T11:41:04.976Z,1.40
2023-04-02T11:42:25.180Z,1.63
2023-04-02T11:44:02.574Z,1.70
2023-04-02T11:45:51.828Z,2.80
2023-04-02T11:47:16.939Z,3.30
2023-04-02T11:48:31.622Z,2.50
2023-04-02T11:49:40.074Z,1.85
2023-04-02T11:50:47.323Z,2.10
2023-04-02T11:51:59.186Z,1.67
2023-04-02T11:53:07.670Z,1.75
2023-04-02T11:54:24.041Z,2.20
2023-04-02T11:55:33.244Z,1.60
2023-04-02T11:56:45.581Z,1.63
2023-04-02T11:58:07.361Z,1.80
2023-04-02T11:59:20.786Z,2.45
2023-04-02T12:01:20.964Z,1.85
2023-04-02T12:02:29.320Z,2.10
2023-04-02T12:03:49.467Z,2.13
2023-04-02T12:05:28.466Z,2.38
2023-04-02T12:06:50.153Z,1.80
2023-04-02T12:08:14.369Z,1.98
2023-04-02T12:09:21.073Z,1.90
2023-04-02T12:10:28.764Z,2.63
2023-04-02T12:11:33.007Z,2.42
2023-04-02T12:12:39.504Z,1.50
2023-04-02T12:13:51.589Z,1.70
2023-04-02T12:14:57.043Z,1.52
2023-04-02T12:15:59.594Z,1.60
2023-04-02T12:17:06.348Z,1.42
2023-04-02T12:18:24.468Z,1.40
2023-04-02T12:19:31.062Z,1.15
2023-04-02T12:20:35.962Z,1.50
2023-04-02T12:21:47.551Z,1.30
2023-04-02T12:22:53.846Z,1.13
2023-04-02T12:23:58.928Z,1.48
2023-04-02T12:25:06.749Z,1.10
2023-04-02T12:26:30.275Z,1.33
2023-04-02T12:27:38.190Z,1.40
2023-04-02T12:28:42.466Z,1.27
2023-04-02T12:29:46.283Z,1.30
2023-04-02T12:30:50.136Z,1.30
2023-04-02T12:31:54.517Z,1.30
2023-04-02T12:32:57.457Z,1.10
2023-04-02T12:34:00.985Z,1.20
2023-04-02T12:35:26.779Z,1.20
2023-04-02T12:36:29.944Z,1.10
2023-04-02T12:37:35.577Z,1.27
2023-04-02T12:38:47.007Z,0.95
2023-04-02T12:39:58.916Z,1.00
2023-04-02T12:41:03.725Z,1.02
2023-04-02T12:42:07.413Z,0.90
2023-04-02T12:43:23.808Z,1.30
2023-04-02T12:44:28.879Z,0.80
2023-04-02T12:45:34.343Z,0.90
2023-04-02T12:46:38.225Z,1.23
2023-04-02T12:47:46.547Z,1.05
2023-04-02T12:48:49.136Z,1.15
2023-04-02T12:49:54.040Z,0.98
2023-04-02T12:50:57.249Z,0.88
2023-04-02T12:52:03.356Z,1.00
2023-04-02T12:53:20.934Z,0.90
2023-04-02T12:54:25.154Z,1.00
2023-04-02T12:55:28.822Z,1.17
2023-04-02T12:56:31.620Z,0.88
2023-04-02T12:57:39.565Z,0.90
2023-04-02T12:58:44.601Z,1.00
2023-04-02T12:59:47.462Z,1.00
2023-04-02T13:00:51.154Z,0.90
2023-04-02T13:01:58.048Z,0.50
2023-04-02T13:03:04.343Z,1.00
2023-04-02T13:04:10.013Z,0.68
2023-04-02T13:05:13.101Z,0.90
2023-04-02T13:06:24.252Z,1.08
2023-04-02T13:07:29.104Z,0.60
2023-04-02T13:08:42.037Z,0.80
2023-04-02T13:09:48.280Z,0.90
2023-04-02T13:10:55.820Z,2.08
2023-04-02T13:12:00.346Z,0.82
2023-04-02T13:13:03.902Z,1.02
2023-04-02T13:14:10.656Z,0.95
2023-04-02T13:15:22.978Z,1.00
2023-04-02T13:16:31.120Z,0.80
2023-04-02T13:17:42.302Z,1.30
2023-04-02T13:18:48.054Z,1.00
2023-04-02T13:19:51.233Z,0.85
2023-04-02T13:20:59.134Z,0.80
2023-04-02T13:22:05.076Z,0.77
2023-04-02T13:23:37.243Z,0.82
2023-04-02T13:24:41.599Z,0.75
2023-04-02T13:25:44.168Z,1.00
2023-04-02T13:26:49.848Z,0.80
2023-04-02T13:27:54.062Z,0.83
2023-04-02T13:29:02.542Z,0.75
2023-04-02T13:30:10.614Z,0.70
2023-04-02T13:31:17.826Z,1.27
2023-04-02T13:32:22.432Z,1.00
2023-04-02T13:33:27.406Z,0.88
2023-04-02T13:34:30.405Z,0.90
2023-04-02T13:35:34.715Z,1.10
2023-04-02T13:36:38.678Z,1.08
2023-04-02T13:37:41.812Z,0.90
2023-04-02T13:38:47.408Z,0.90
2023-04-02T13:39:51.664Z,0.70
2023-04-02T13:40:54.212Z,0.93
2023-04-02T13:41:59.372Z,1.10
2023-04-02T13:43:03.576Z,0.90
2023-04-02T13:44:07.064Z,0.82
2023-04-02T13:45:22.606Z,0.90
2023-04-02T13:46:30.078Z,0.82
2023-04-02T13:47:32.676Z,0.70
2023-04-02T13:48:36.143Z,0.80
2023-04-02T13:49:39.583Z,0.97
2023-04-02T13:50:42.409Z,0.73
2023-04-02T13:51:48.602Z,1.08
2023-04-02T13:52:52.240Z,0.80
2023-04-02T13:53:59.192Z,1.00
2023-04-02T13:55:03.646Z,0.60
2023-04-02T13:56:06.827Z,1.05
2023-04-02T13:57:10.789Z,1.05
2023-04-02T13:58:13.444Z,0.73
2023-04-02T13:59:17.508Z,1.00
2023-04-02T14:00:21.440Z,1.20
2023-04-02T14:01:27.375Z,0.85
2023-04-02T14:02:30.398Z,1.13
2023-04-02T14:03:34.632Z,1.17
2023-04-02T14:04:44.474Z,1.10
2023-04-02T14:05:58.205Z,0.90
2023-04-02T14:07:26.083Z,1.40
2023-04-02T14:08:42.479Z,0.88
2023-04-02T14:09:58.355Z,1.00
2023-04-02T14:11:14.675Z,1.00
2023-04-02T14:12:28.683Z,1.20
2023-04-02T14:14:03.562Z,0.90
2023-04-02T14:15:29.676Z,1.23
2023-04-02T14:16:51.035Z,1.17
2023-04-02T14:18:20.592Z,1.23
2023-04-02T14:19:36.219Z,0.90
2023-04-02T14:20:51.701Z,0.98
2023-04-02T14:22:07.820Z,1.10
2023-04-02T14:23:27.170Z,1.02
2023-04-02T14:24:40.102Z,0.93
2023-04-02T14:25:55.011Z,1.30
2023-04-02T14:27:11.365Z,1.10
2023-04-02T14:28:23.761Z,1.05
2023-04-02T14:29:32.088Z,1.25
2023-04-02T14:30:46.642Z,1.10
2023-04-02T14:31:56.974Z,1.67
2023-04-02T14:33:10.159Z,1.23
2023-04-02T14:34:21.933Z,1.20
2023-04-02T14:35:31.169Z,1.20
2023-04-02T14:36:44.522Z,1.20
2023-04-02T14:37:56.044Z,1.47
2023-04-02T14:39:05.760Z,1.00
2023-04-02T14:40:18.725Z,1.48
2023-04-02T14:41:31.028Z,1.55
2023-04-02T14:42:40.898Z,1.20
2023-04-02T14:43:48.469Z,1.20
2023-04-02T14:44:58.417Z,1.48
2023-04-02T14:46:03.317Z,1.95
2023-04-02T14:47:15.147Z,1.13
2023-04-02T14:48:31.917Z,1.42
2023-04-02T14:49:40.121Z,1.80
2023-04-02T14:50:43.395Z,0.98
2023-04-02T14:51:50.969Z,1.52
2023-04-02T14:52:57.185Z,1.30
2023-04-02T14:54:08.917Z,1.45
2023-04-02T14:55:28.481Z,1.35
2023-04-02T14:56:40.282Z,1.48
2023-04-02T14:57:49.192Z,1.20
2023-04-02T14:58:58.837Z,1.00
2023-04-02T15:00:05.646Z,1.83
2023-04-02T15:01:15.415Z,1.13
2023-04-02T15:02:28.263Z,1.30
2023-04-02T15:03:37.213Z,1.63
2023-04-02T15:04:44.551Z,1.27
2023-04-02T15:05:50.263Z,1.00
2023-04-02T15:06:57.016Z,1.15
2023-04-02T15:08:05.369Z,1.27
2023-04-02T15:09:15.873Z,1.60
2023-04-02T15:10:27.734Z,1.50
2023-04-02T15:11:36.013Z,1.55
2023-04-02T15:12:42.054Z,1.30
2023-04-02T15:13:49.492Z,1.50
2023-04-02T15:14:56.953Z,1.20
2023-04-02T15:16:11.364Z,2.13
2023-04-02T15:17:14.143Z,1.50